Time;durP1;ratioP1;P1;durP2;ratioP2;P2;SDS_P1;SDS_P2;PMS_P1;PMS_P2;Temp;Humidity;BMP_temperature;BMP_pressure;BME280_temperature;BME280_humidity;BME280_pressure;Samples;Min_cycle;Max_cycle;Signal;HPM_P1;HPM_P2
2022/05/08 00:02:24;;;;;;;5.35;2.40;;;;;;;9.90;91.20;100854.69;10432218;28;20087;-71
2022/05/08 00:07:25;;;;;;;3.90;2.42;;;;;;;9.15;90.79;100710.88;10453766;28;20033;-69
2022/05/08 00:12:26;;;;;;;5.40;2.42;;;;;;;9.45;90.58;100773.31;10453478;28;20041;-69
2022/05/08 00:17:29;;;;;;;5.38;2.25;;;;;;;9.07;90.26;100705.50;10454001;28;20474;-69
2022/05/08 00:22:30;;;;;;;6.17;2.30;;;;;;;9.71;89.75;100815.03;10453789;28;20044;-70
2022/05/08 00:27:31;;;;;;;6.03;2.17;;;;;;;9.38;89.88;100772.25;10454313;28;20041;-70
2022/05/08 00:32:32;;;;;;;4.93;2.20;;;;;;;9.25;90.22;100746.13;10453573;28;20497;-70
2022/05/08 00:37:33;;;;;;;4.10;2.00;;;;;;;9.04;90.36;100698.69;10452974;28;20037;-70
2022/05/08 00:42:33;;;;;;;8.48;2.15;;;;;;;9.94;90.91;100868.50;10454045;28;20052;-70
2022/05/08 00:47:35;;;;;;;9.57;3.05;;;;;;;9.97;91.84;100877.00;10453364;28;20496;-69
2022/05/08 00:52:36;;;;;;;3.38;2.08;;;;;;;9.93;92.71;100883.59;10452849;28;20096;-69
2022/05/08 00:57:41;;;;;;;4.72;2.22;;;;;;;9.49;93.21;100818.97;10452691;28;20040;-69
2022/05/08 01:02:42;;;;;;;3.40;2.03;;;;;;;9.56;93.15;100820.00;10458370;28;20062;-69
2022/05/08 01:07:43;;;;;;;2.80;1.95;;;;;;;8.20;92.91;100606.97;10459780;28;20238;-70
2022/05/08 01:12:44;;;;;;;3.67;2.15;;;;;;;9.70;93.63;100859.28;10460154;28;20036;-69
2022/05/08 01:17:46;;;;;;;3.85;2.17;;;;;;;9.04;93.26;100750.84;10460198;28;20037;-69
2022/05/08 01:22:47;;;;;;;6.90;2.08;;;;;;;8.89;93.19;100718.72;10459320;28;20071;-69
2022/05/08 01:27:48;;;;;;;5.13;2.05;;;;;;;9.55;92.70;100824.50;10459182;28;20044;-69
2022/05/08 01:32:49;;;;;;;7.28;2.10;;;;;;;9.56;92.67;100834.09;10459458;28;20131;-69
2022/05/08 01:37:50;;;;;;;5.50;2.25;;;;;;;9.46;92.89;100822.72;10458716;28;20072;-69
2022/05/08 01:42:51;;;;;;;6.93;2.13;;;;;;;9.36;92.21;100800.72;10458851;28;20061;-69
2022/05/08 01:53:11;;;;;;;4.13;2.28;;;;;;;9.62;91.84;100834.50;10457980;28;20081;-70
2022/05/08 01:58:12;;;;;;;5.00;2.05;;;;;;;9.21;91.79;100757.16;10458197;28;20083;-70
2022/05/08 02:03:13;;;;;;;4.05;2.25;;;;;;;9.70;91.47;100838.06;10457932;28;20063;-69
2022/05/08 02:08:15;;;;;;;9.77;2.78;;;;;;;8.16;91.16;100584.41;10457962;28;20040;-69
2022/05/08 02:13:16;;;;;;;4.60;2.25;;;;;;;9.43;91.30;100799.16;10458290;28;20045;-69
2022/05/08 02:18:16;;;;;;;6.13;2.20;;;;;;;9.64;91.49;100833.38;10454243;28;20033;-70
2022/05/08 02:23:17;;;;;;;6.47;2.25;;;;;;;9.37;91.26;100794.47;10416675;28;20041;-69
2022/05/08 02:28:18;;;;;;;4.53;2.05;;;;;;;9.65;91.45;100839.50;10414718;28;20136;-69
2022/05/08 02:33:21;;;;;;;3.67;1.92;;;;;;;8.53;90.88;100651.59;10416013;28;20042;-69
2022/05/08 02:38:22;;;;;;;4.40;2.08;;;;;;;9.58;90.80;100826.84;10416410;28;20046;-70
2022/05/08 02:43:23;;;;;;;4.55;2.30;;;;;;;8.16;90.20;100586.22;10415627;28;20040;-70
2022/05/08 02:48:24;;;;;;;3.63;1.90;;;;;;;9.77;90.23;100838.31;10413540;28;20073;-69
2022/05/08 02:53:24;;;;;;;11.15;1.80;;;;;;;9.85;89.51;100849.00;10415181;28;20145;-70
2022/05/08 02:58:34;;;;;;;5.05;2.10;;;;;;;9.80;88.68;100841.47;10414380;28;20046;-69
2022/05/08 03:03:35;;;;;;;5.15;1.70;;;;;;;9.38;88.24;100775.75;10414574;28;20040;-69
2022/05/08 03:08:36;;;;;;;3.72;1.83;;;;;;;9.79;87.68;100839.00;10414342;28;20103;-69
2022/05/08 03:13:39;;;;;;;9.23;2.45;;;;;;;9.92;87.57;100838.63;10413552;28;20489;-70
2022/05/08 03:18:40;;;;;;;4.13;1.90;;;;;;;9.62;87.43;100790.25;10413975;28;20505;-70
2022/05/08 03:23:44;;;;;;;4.75;2.13;;;;;;;8.60;86.63;100600.50;10418940;28;20037;-69
2022/05/08 03:28:46;;;;;;;2.63;1.65;;;;;;;9.56;86.34;100733.31;10422647;28;20037;-69
2022/05/08 03:33:47;;;;;;;3.35;2.00;;;;;;;10.28;85.81;100836.78;10426885;28;20037;-69
2022/05/08 03:38:47;;;;;;;3.35;1.83;;;;;;;10.09;85.28;100811.22;10433244;28;20043;-69
2022/05/08 03:43:50;;;;;;;4.40;1.98;;;;;;;10.58;84.61;100895.78;10430621;28;20049;-69
2022/05/08 03:48:51;;;;;;;3.03;1.92;;;;;;;10.52;84.70;100860.06;10432058;28;20041;-69
2022/05/08 03:53:53;;;;;;;4.13;1.70;;;;;;;10.67;84.27;100878.91;10428024;28;20421;-69
2022/05/08 03:58:54;;;;;;;4.82;1.80;;;;;;;10.40;84.28;100838.22;10430150;28;20037;-69
2022/05/08 04:03:55;;;;;;;3.45;1.75;;;;;;;10.37;84.39;100840.34;10421839;28;20409;-70
2022/05/08 04:08:56;;;;;;;4.20;2.10;;;;;;;10.43;84.83;100856.50;10414111;28;20074;-70
2022/05/08 04:13:56;;;;;;;5.85;2.40;;;;;;;10.22;84.79;100864.75;10455121;28;20439;-71
2022/05/08 04:18:57;;;;;;;7.82;2.33;;;;;;;9.72;85.33;100768.94;10430330;28;20499;-69
2022/05/08 04:24:16;;;;;;;5.25;2.33;;;;;;;10.36;85.82;100874.06;10417010;28;20045;-70
2022/05/08 04:29:17;;;;;;;8.82;2.10;;;;;;;9.71;85.69;100765.44;10412717;28;20128;-70
2022/05/08 04:34:18;;;;;;;6.03;2.33;;;;;;;10.52;85.08;100891.94;10413135;28;20560;-70
2022/05/08 04:39:19;;;;;;;4.43;2.00;;;;;;;10.65;84.57;100899.50;10420956;28;20041;-71
2022/05/08 04:44:20;;;;;;;5.18;1.83;;;;;;;10.65;84.62;100889.72;10420746;28;20152;-70
2022/05/08 04:49:21;;;;;;;9.57;2.22;;;;;;;10.66;84.58;100879.91;10419342;28;20048;-72
2022/05/08 04:54:25;;;;;;;5.20;2.00;;;;;;;10.44;84.50;100858.19;10419273;28;20061;-70
2022/05/08 04:59:26;;;;;;;2.90;1.67;;;;;;;10.77;84.53;100892.97;10417419;28;20136;-71
2022/05/08 05:04:27;;;;;;;3.35;1.50;;;;;;;10.19;83.32;100766.00;10418401;28;20132;-70
2022/05/08 05:09:27;;;;;;;2.88;1.60;;;;;;;10.95;82.82;100877.78;10474608;28;20561;-70
2022/05/08 05:14:31;;;;;;;3.03;1.70;;;;;;;11.01;81.63;100873.66;10458645;28;20075;-71
2022/05/08 05:19:32;;;;;;;6.43;1.63;;;;;;;11.18;81.39;100880.72;10458880;28;20052;-70
2022/05/08 05:24:33;;;;;;;3.30;1.77;;;;;;;11.10;80.65;100816.06;10459331;28;20381;-71
2022/05/08 05:29:34;;;;;;;4.47;1.55;;;;;;;11.71;79.65;100873.44;10458843;28;20489;-71
2022/05/08 05:34:34;;;;;;;8.50;4.13;;;;;;;11.97;78.75;100861.91;10459128;28;20041;-72
2022/05/08 05:39:35;;;;;;;4.43;1.88;;;;;;;11.97;77.66;100816.63;10458427;28;20033;-71
2022/05/08 05:44:36;;;;;;;5.55;1.85;;;;;;;12.11;76.75;100802.63;10457871;28;20125;-72
2022/05/08 05:49:38;;;;;;;5.95;1.90;;;;;;;12.45;76.10;100831.75;10458046;28;20439;-73
2022/05/08 05:54:39;;;;;;;5.85;1.88;;;;;;;12.55;75.86;100813.75;10448134;28;20057;-73
2022/05/08 05:59:39;;;;;;;3.95;1.50;;;;;;;12.55;75.43;100812.91;10456339;28;20404;-70
2022/05/08 06:04:58;;;;;;;5.70;1.55;;;;;;;12.72;75.19;100817.22;10457406;28;20037;-71
2022/05/08 06:10:00;;;;;;;6.57;2.50;;;;;;;13.17;74.46;100847.75;10451928;28;20049;-71
2022/05/08 06:15:01;;;;;;;6.90;1.70;;;;;;;13.30;74.06;100849.06;10457963;28;20154;-71
2022/05/08 06:20:02;;;;;;;6.25;1.80;;;;;;;12.59;73.70;100730.78;10457446;28;20048;-70
2022/05/08 06:25:04;;;;;;;4.88;2.15;;;;;;;13.34;74.00;100845.88;10457479;28;20488;-71
2022/05/08 06:30:07;;;;;;;9.20;3.17;;;;;;;12.73;73.37;100748.75;10457220;28;20045;-72
2022/05/08 06:35:08;;;;;;;6.45;2.92;;;;;;;12.69;73.94;100737.59;10457096;28;20041;-69
2022/05/08 06:40:09;;;;;;;8.98;2.90;;;;;;;13.20;74.09;100823.41;10444530;28;20053;-72
2022/05/08 06:45:10;;;;;;;7.50;1.98;;;;;;;13.40;73.91;100868.34;10414904;28;20037;-72
2022/05/08 06:50:11;;;;;;;6.70;1.90;;;;;;;12.44;74.25;100717.34;10414654;28;20044;-71
2022/05/08 06:55:13;;;;;;;3.92;1.50;;;;;;;12.21;74.33;100704.75;10415481;28;20173;-71
2022/05/08 07:05:38;;;;;;;18.33;6.10;;;;;;;13.31;73.95;100853.38;10411611;28;20400;-71
2022/05/08 07:10:39;;;;;;;6.18;2.88;;;;;;;12.79;73.04;100748.88;10414670;28;20037;-71
2022/05/08 07:15:40;;;;;;;11.35;4.18;;;;;;;13.44;72.05;100810.97;10414286;28;20056;-70
2022/05/08 07:20:41;;;;;;;8.88;2.60;;;;;;;13.58;71.07;100817.38;10411161;28;20053;-72
2022/05/08 07:25:42;;;;;;;5.60;2.33;;;;;;;12.91;70.62;100682.66;10413324;28;20045;-72
2022/05/08 07:30:43;;;;;;;11.40;3.80;;;;;;;13.75;70.77;100813.59;10413444;28;20072;-71
2022/05/08 07:41:03;;;;;;;6.28;1.88;;;;;;;13.76;70.36;100825.13;10413468;28;20505;-70
2022/05/08 07:46:04;;;;;;;6.95;1.48;;;;;;;13.73;70.98;100830.81;10413404;28;20064;-71
2022/05/08 07:51:05;;;;;;;8.70;2.88;;;;;;;13.60;71.53;100828.72;10412433;28;20052;-72
2022/05/08 07:56:06;;;;;;;8.05;2.47;;;;;;;13.24;72.98;100808.69;10412728;28;20053;-71
2022/05/08 08:01:07;;;;;;;6.63;1.70;;;;;;;12.83;73.92;100788.53;10412852;28;20041;-72
2022/05/08 08:06:08;;;;;;;4.97;1.50;;;;;;;12.93;75.44;100824.66;10425325;28;20045;-74
2022/05/08 08:11:10;;;;;;;3.28;1.27;;;;;;;12.66;76.02;100796.59;10418532;28;20424;-72
2022/05/08 08:16:11;;;;;;;4.25;1.75;;;;;;;12.65;76.42;100810.88;10421274;28;20041;-73
2022/05/08 08:21:13;;;;;;;5.43;1.52;;;;;;;12.41;76.94;100790.44;10420731;28;20045;-71
2022/05/08 08:26:14;;;;;;;5.03;1.73;;;;;;;12.34;76.97;100761.00;10420340;28;20045;-75
2022/05/08 08:31:15;;;;;;;6.70;1.90;;;;;;;11.88;77.91;100680.84;10418854;28;20149;-75
2022/05/08 08:36:16;;;;;;;5.47;1.73;;;;;;;11.65;78.56;100647.91;10420416;28;20046;-74
2022/05/08 08:41:25;;;;;;;3.80;1.58;;;;;;;12.76;79.10;100818.53;10420712;28;20041;-77
2022/05/08 08:51:49;;;;;;;3.72;1.40;;;;;;;11.91;80.02;100684.19;10419284;28;20204;-74
2022/05/08 08:56:51;;;;;;;6.70;1.90;;;;;;;12.86;80.61;100822.84;10423256;28;20056;-70
2022/05/08 09:01:52;;;;;;;5.82;1.52;;;;;;;11.92;80.72;100648.56;10459735;28;20106;-72
2022/05/08 09:06:53;;;;;;;6.63;2.00;;;;;;;12.82;80.14;100768.22;10460800;28;20578;-70
2022/05/08 09:11:56;;;;;;;8.60;2.08;;;;;;;12.97;80.19;100793.97;10460033;28;20048;-72
2022/05/08 09:16:58;;;;;;;4.32;1.60;;;;;;;12.73;80.30;100767.41;10459169;28;20480;-72
2022/05/08 09:22:00;;;;;;;7.15;1.80;;;;;;;12.66;80.42;100769.09;10412495;28;20053;-76
2022/05/08 09:27:16;;;;;;;7.03;1.80;;;;;;;13.13;78.98;100814.44;10416196;28;20037;-72
2022/05/08 09:32:36;;;;;;;4.40;1.30;;;;;;;13.30;77.40;100819.72;10408767;28;20421;-73
2022/05/08 09:37:54;;;;;;;6.55;1.73;;;;;;;12.53;76.10;100645.22;10376881;28;20041;-74
2022/05/08 09:42:54;;;;;;;6.30;1.60;;;;;;;13.28;75.87;100707.81;10377202;28;20038;-74
2022/05/08 09:47:57;;;;;;;4.18;1.55;;;;;;;13.84;74.99;100779.66;10374841;28;20042;-71
2022/05/08 09:52:58;;;;;;;5.25;1.70;;;;;;;13.54;74.49;100709.31;10391256;28;20063;-73
2022/05/08 09:58:00;;;;;;;8.05;1.40;;;;;;;13.91;73.82;100777.97;10413349;28;20140;-72
2022/05/08 10:03:02;;;;;;;3.58;1.38;;;;;;;14.25;73.56;100809.56;10415865;28;20066;-75
2022/05/08 10:08:04;;;;;;;12.52;1.80;;;;;;;13.86;72.22;100732.25;10389800;28;20069;-75
2022/05/08 10:18:29;;;;;;;4.25;1.42;;;;;;;14.41;71.75;100765.81;10373031;28;20059;-76
2022/05/08 10:23:45;;;;;;;6.95;1.75;;;;;;;14.51;70.50;100782.44;10383561;28;20557;-76
2022/05/08 10:29:14;;;;;;;4.78;1.50;;;;;;;14.49;71.25;100789.78;10415698;28;20132;-73
2022/05/08 10:34:28;;;;;;;7.07;2.50;;;;;;;14.42;71.64;100783.53;10413907;28;20049;-75
2022/05/08 10:39:42;;;;;;;4.45;1.67;;;;;;;14.49;71.42;100799.66;10392092;28;20041;-74
2022/05/08 10:44:43;;;;;;;8.05;2.10;;;;;;;14.34;72.13;100776.41;10415200;28;20091;-73
2022/05/08 10:49:45;;;;;;;4.63;1.40;;;;;;;14.06;71.81;100746.78;10431483;28;20079;-75
2022/05/08 10:54:59;;;;;;;10.15;2.05;;;;;;;13.03;72.55;100558.59;10415755;28;20447;-75
2022/05/08 11:00:00;;;;;;;7.75;2.20;;;;;;;14.39;72.01;100789.22;10415548;28;20049;-74
2022/05/08 11:05:01;;;;;;;5.50;2.28;;;;;;;14.41;73.11;100794.38;10414102;28;20505;-74
2022/05/08 11:10:02;;;;;;;7.25;2.05;;;;;;;14.30;72.92;100780.47;10414693;28;20047;-74
2022/05/08 11:15:09;;;;;;;5.07;2.20;;;;;;;14.29;73.26;100796.66;10414507;28;20048;-74
2022/05/08 11:20:10;;;;;;;9.30;2.30;;;;;;;14.06;73.63;100797.53;10415280;28;20053;-73
2022/05/08 11:25:12;;;;;;;5.65;2.05;;;;;;;13.26;73.78;100690.34;10413513;28;20120;-75
2022/05/08 11:30:13;;;;;;;4.72;1.30;;;;;;;14.01;74.17;100801.75;10393521;28;20073;-72
2022/05/08 11:40:34;;;;;;;9.68;1.63;;;;;;;13.94;74.69;100788.28;10413626;28;20053;-73
2022/05/08 11:45:35;;;;;;;9.07;1.70;;;;;;;13.55;75.05;100726.97;10412725;28;20040;-72
2022/05/08 11:50:35;;;;;;;8.13;1.70;;;;;;;13.88;75.35;100775.63;10413656;28;20041;-73
2022/05/08 11:55:43;;;;;;;7.00;1.60;;;;;;;13.81;75.63;100772.84;10413666;28;20194;-72
2022/05/08 12:00:45;;;;;;;5.47;1.48;;;;;;;13.58;74.74;100716.81;10410092;28;20042;-76
2022/05/08 12:05:47;;;;;;;6.53;1.98;;;;;;;13.80;74.67;100752.50;10420239;28;20064;-78
2022/05/08 12:10:47;;;;;;;3.67;1.55;;;;;;;13.83;74.64;100741.47;10454326;28;20053;-81
2022/05/08 12:15:48;;;;;;;8.80;2.45;;;;;;;13.76;74.01;100718.31;10453702;28;20139;-77
2022/05/08 12:20:51;;;;;;;8.68;1.65;;;;;;;13.98;73.49;100738.00;10436856;28;20563;-77
2022/05/08 12:25:52;;;;;;;7.88;1.75;;;;;;;13.51;73.37;100651.78;10453933;28;20044;-85
2022/05/08 12:30:53;;;;;;;6.20;1.70;;;;;;;14.05;73.77;100733.59;10433642;28;20488;-76
2022/05/08 12:35:53;;;;;;;6.45;1.75;;;;;;;14.06;74.04;100745.91;10422845;28;20103;-77
2022/05/08 12:40:56;;;;;;;6.25;1.67;;;;;;;13.83;74.23;100703.25;10410414;28;20045;-77
2022/05/08 12:45:57;;;;;;;4.65;1.65;;;;;;;13.77;74.50;100690.63;10430719;28;20060;-78
2022/05/08 12:50:58;;;;;;;6.43;1.70;;;;;;;13.95;74.98;100728.50;10453020;28;20037;-79
2022/05/08 12:55:59;;;;;;;8.23;2.15;;;;;;;14.06;75.44;100735.25;10455907;28;20198;-78
2022/05/08 13:01:00;;;;;;;7.45;1.90;;;;;;;13.98;75.12;100701.44;10461956;28;20041;-79
2022/05/08 13:06:01;;;;;;;7.03;2.10;;;;;;;13.87;75.02;100696.53;10458878;28;20132;-78
2022/05/08 13:11:02;;;;;;;11.32;2.20;;;;;;;13.59;75.40;100645.56;10429015;28;20061;-79
2022/05/08 13:16:11;;;;;;;8.98;3.25;;;;;;;14.15;76.11;100718.16;10419107;28;20033;-80
2022/05/08 13:21:13;;;;;;;5.93;1.75;;;;;;;14.42;75.64;100746.09;10418618;28;20505;-79
2022/05/08 13:26:15;;;;;;;8.18;1.80;;;;;;;14.21;75.15;100705.88;10418803;28;20041;-80
2022/05/08 13:31:16;;;;;;;7.18;2.00;;;;;;;14.52;74.79;100744.00;10417819;28;20037;-79
2022/05/08 13:36:17;;;;;;;6.30;1.90;;;;;;;14.52;74.52;100729.81;10415588;28;20045;-79
2022/05/08 13:41:18;;;;;;;11.38;2.17;;;;;;;14.49;74.31;100744.34;10418560;28;20041;-83
2022/05/08 13:46:20;;;;;;;7.93;2.33;;;;;;;12.95;74.07;100510.69;10418479;28;20480;-82
2022/05/08 13:51:21;;;;;;;5.75;2.47;;;;;;;12.99;73.69;100535.13;10443338;28;20057;-73
2022/05/08 13:56:21;;;;;;;9.07;2.22;;;;;;;14.00;73.87;100703.91;10433945;28;20061;-72
2022/05/08 14:01:23;;;;;;;13.88;2.80;;;;;;;13.53;74.36;100636.44;10417485;28;20041;-73
2022/05/08 14:06:23;;;;;;;7.20;1.98;;;;;;;14.12;74.21;100755.91;10416839;28;20479;-73
2022/05/08 14:11:24;;;;;;;11.88;1.90;;;;;;;13.80;74.26;100715.13;10417639;28;20136;-72
2022/05/08 14:16:25;;;;;;;6.38;1.73;;;;;;;13.96;74.19;100746.19;10415629;28;20099;-73
2022/05/08 14:21:26;;;;;;;11.93;2.03;;;;;;;13.26;73.93;100643.16;10391976;28;20556;-74
2022/05/08 14:26:27;;;;;;;6.82;1.85;;;;;;;13.63;74.37;100714.41;10375268;28;20038;-81
2022/05/08 14:36:46;;;;;;;6.15;1.98;;;;;;;12.62;74.82;100560.69;10374680;28;20168;-77
2022/05/08 14:41:47;;;;;;;9.38;2.35;;;;;;;13.50;75.39;100711.53;10375574;28;20133;-74
2022/05/08 14:46:48;;;;;;;16.17;3.03;;;;;;;12.87;75.65;100606.72;10374266;28;20212;-74
2022/05/08 14:51:49;;;;;;;5.93;2.00;;;;;;;13.21;74.97;100678.31;11212758;23;20096;-76
2022/05/08 14:56:50;;;;;;;6.38;2.03;;;;;;;13.27;76.23;100686.66;10331841;28;20053;-78
2022/05/08 15:01:51;;;;;;;6.25;2.05;;;;;;;13.30;76.41;100683.63;10325987;28;20399;-76
2022/05/08 15:06:53;;;;;;;5.70;1.48;;;;;;;13.15;77.07;100679.03;10333731;28;20068;-78
2022/05/08 15:11:54;;;;;;;8.60;1.85;;;;;;;11.71;77.40;100442.31;10332840;28;20420;-75
2022/05/08 15:16:54;;;;;;;7.80;2.13;;;;;;;13.27;77.58;100698.16;10332749;28;20046;-75
2022/05/08 15:21:56;;;;;;;5.95;2.08;;;;;;;12.65;77.40;100607.50;10331717;28;20038;-77
2022/05/08 15:26:57;;;;;;;8.77;2.88;;;;;;;12.65;77.92;100607.50;10333353;28;20599;-76
2022/05/08 15:31:58;;;;;;;8.07;1.95;;;;;;;12.14;78.18;100546.63;10333456;28;20066;-77
2022/05/08 15:36:59;;;;;;;6.00;2.20;;;;;;;13.43;78.52;100751.44;10332610;28;20522;-76
2022/05/08 15:41:59;;;;;;;10.63;1.70;;;;;;;13.34;78.16;100755.16;10319886;28;20038;-75
2022/05/08 15:47:02;;;;;;;13.07;1.90;;;;;;;12.80;78.97;100709.72;10316610;28;20064;-76
2022/05/08 15:52:04;;;;;;;5.90;2.17;;;;;;;12.69;79.50;100683.47;10330637;28;20062;-76
2022/05/08 15:57:05;;;;;;;5.32;2.15;;;;;;;12.45;80.45;100655.09;10331159;28;20042;-77
2022/05/08 16:02:06;;;;;;;6.47;2.17;;;;;;;13.07;80.88;100767.09;10330665;28;20034;-75
2022/05/08 16:07:07;;;;;;;9.13;2.03;;;;;;;11.99;80.77;100599.78;10291089;28;20383;-74
2022/05/08 16:12:09;;;;;;;8.25;2.60;;;;;;;12.82;80.68;100738.88;10291275;28;20043;-76
2022/05/08 16:27:48;;;;;;;4.60;2.13;;;;;;;11.58;79.37;100525.34;10331421;28;20049;-73
2022/05/08 16:32:50;;;;;;;6.75;2.60;;;;;;;11.52;79.45;100531.34;10337586;28;20042;-75
2022/05/08 16:37:54;;;;;;;8.70;2.53;;;;;;;13.01;79.12;100749.13;10339452;28;20038;-76
2022/05/08 16:42:55;;;;;;;7.30;2.47;;;;;;;11.01;79.38;100428.88;10339453;28;20128;-75
2022/05/08 16:47:56;;;;;;;7.55;2.50;;;;;;;10.04;78.74;100296.75;10338409;28;20042;-74
2022/05/08 16:52:57;;;;;;;9.63;2.30;;;;;;;11.69;79.24;100536.63;10337648;28;20069;-73
2022/05/08 16:57:58;;;;;;;7.78;2.63;;;;;;;12.79;79.29;100713.41;10326501;28;20050;-75
2022/05/08 17:02:59;;;;;;;5.38;2.05;;;;;;;12.05;79.32;100606.25;10337772;28;20128;-74
2022/05/08 17:08:00;;;;;;;5.15;2.35;;;;;;;12.88;79.72;100744.34;10338728;28;20409;-73
2022/05/08 17:13:00;;;;;;;7.15;2.10;;;;;;;12.41;79.51;100686.53;10337436;28;20077;-74
2022/05/08 17:18:01;;;;;;;8.25;2.15;;;;;;;11.23;78.64;100483.19;10336431;28;20039;-78
2022/05/08 17:23:04;;;;;;;9.95;1.80;;;;;;;12.62;78.36;100715.28;10333544;28;20045;-74
2022/05/08 17:33:27;;;;;;;6.38;2.03;;;;;;;12.55;78.12;100699.16;10305521;28;20042;-72
2022/05/08 17:38:27;;;;;;;3.25;1.65;;;;;;;11.75;78.20;100586.50;10329819;28;20054;-73
2022/05/08 17:43:29;;;;;;;6.05;1.90;;;;;;;10.97;77.93;100463.75;10324306;28;20062;-75
2022/05/08 17:48:29;;;;;;;8.63;2.22;;;;;;;11.06;78.74;100499.16;10296840;28;20038;-75
2022/05/08 17:53:30;;;;;;;3.80;1.90;;;;;;;12.66;79.37;100756.59;10295399;28;20066;-73
2022/05/08 17:58:31;;;;;;;8.18;1.95;;;;;;;11.86;80.27;100629.59;10324950;28;20074;-74
2022/05/08 18:08:51;;;;;;;7.35;2.35;;;;;;;11.15;81.02;100518.59;10296169;28;20049;-75
2022/05/08 18:13:52;;;;;;;5.38;1.92;;;;;;;12.30;81.67;100711.72;10295864;28;20039;-74
2022/05/08 18:18:53;;;;;;;6.68;2.05;;;;;;;11.70;82.58;100629.59;10295064;28;20106;-75
2022/05/08 18:23:54;;;;;;;4.28;1.98;;;;;;;10.54;82.45;100440.22;10296208;28;20050;-74
2022/05/08 18:28:57;;;;;;;5.90;2.08;;;;;;;12.20;83.02;100715.56;10294632;28;20098;-75
2022/05/08 18:33:58;;;;;;;4.95;2.55;;;;;;;12.39;83.76;100736.53;10294801;28;20035;-74
2022/05/08 18:39:01;;;;;;;5.57;1.92;;;;;;;11.22;83.68;100548.84;10329069;28;20042;-77
2022/05/08 18:44:04;;;;;;;13.90;2.08;;;;;;;12.39;83.61;100741.03;10328138;28;20053;-75
2022/05/08 18:49:22;;;;;;;6.80;1.98;;;;;;;12.34;83.21;100730.88;10334295;28;20074;-74
2022/05/08 18:54:23;;;;;;;9.10;2.03;;;;;;;11.78;82.83;100645.53;10333420;28;20068;-73
2022/05/08 18:59:25;;;;;;;10.27;1.90;;;;;;;10.65;82.71;100464.63;10333819;28;20052;-75
2022/05/08 19:04:30;;;;;;;8.52;1.55;;;;;;;12.35;82.50;100740.50;10333854;28;20042;-74
2022/05/08 19:09:31;;;;;;;5.45;1.80;;;;;;;11.50;81.84;100567.09;10333103;28;20038;-76
2022/05/08 19:14:32;;;;;;;16.73;2.38;;;;;;;10.47;80.74;100397.56;10332874;28;20467;-76
2022/05/08 19:19:33;;;;;;;7.05;2.05;;;;;;;11.79;80.57;100599.31;10333085;28;20038;-75
2022/05/08 19:24:35;;;;;;;11.32;1.73;;;;;;;12.32;81.08;100685.75;10332358;28;20054;-76
2022/05/08 19:29:37;;;;;;;7.28;1.80;;;;;;;11.19;80.97;100507.47;10321210;28;20209;-76
2022/05/08 19:40:02;;;;;;;5.78;2.08;;;;;;;11.56;80.60;100561.09;10291762;28;20418;-75
2022/05/08 19:45:07;;;;;;;5.45;2.33;;;;;;;12.44;80.26;100701.34;10324616;28;20100;-75
2022/05/08 19:50:08;;;;;;;11.82;2.28;;;;;;;11.96;79.82;100617.94;10321260;28;20031;-74
2022/05/08 19:55:09;;;;;;;8.38;2.00;;;;;;;12.03;80.52;100630.41;10305672;28;20494;-77
2022/05/08 20:00:11;;;;;;;7.75;2.08;;;;;;;11.69;80.57;100574.69;10306732;28;20038;-76
2022/05/08 20:05:14;;;;;;;4.57;1.73;;;;;;;12.39;81.42;100690.41;10309754;28;20050;-76
2022/05/08 20:10:16;;;;;;;5.85;1.88;;;;;;;12.09;81.63;100656.34;10327469;28;20105;-76
2022/05/08 20:15:17;;;;;;;7.30;2.15;;;;;;;12.33;81.72;100698.06;10330881;28;20129;-75
2022/05/08 20:25:37;;;;;;;7.07;1.60;;;;;;;12.01;82.12;100637.72;10322067;28;20043;-77
2022/05/08 20:30:39;;;;;;;4.20;1.80;;;;;;;11.00;82.91;100491.00;10318182;28;20493;-75
2022/05/08 20:35:41;;;;;;;8.77;1.95;;;;;;;11.00;83.24;100510.44;10331322;28;20042;-75
2022/05/08 20:40:41;;;;;;;8.30;2.10;;;;;;;9.71;83.42;100322.44;10324645;28;20126;-74
2022/05/08 20:45:42;;;;;;;4.63;1.70;;;;;;;10.59;84.13;100453.81;10308091;28;20125;-75
2022/05/08 20:50:43;;;;;;;4.63;1.60;;;;;;;9.80;83.74;100326.75;10309447;28;20406;-76
2022/05/08 20:55:44;;;;;;;3.47;1.48;;;;;;;9.89;84.55;100356.78;10307636;28;20506;-77
2022/05/08 21:00:45;;;;;;;4.75;1.95;;;;;;;11.13;84.82;100536.56;10309982;28;20501;-76
2022/05/08 21:11:19;;;;;;;7.38;1.95;;;;;;;10.63;84.56;100458.63;10298167;28;20058;-73
2022/05/08 21:16:22;;;;;;;6.22;1.75;;;;;;;10.94;84.94;100508.47;10370600;28;20037;-73
2022/05/08 21:21:23;;;;;;;5.97;2.05;;;;;;;10.61;84.73;100467.75;10371492;28;20062;-74
2022/05/08 21:26:25;;;;;;;10.70;2.30;;;;;;;10.73;84.81;100483.19;10339799;28;20066;-76
2022/05/08 21:31:26;;;;;;;3.78;1.73;;;;;;;10.35;84.51;100434.22;10353518;28;20136;-73
2022/05/08 21:36:27;;;;;;;6.45;2.10;;;;;;;10.95;84.48;100515.47;10360877;28;20045;-72
2022/05/08 21:41:28;;;;;;;6.70;1.88;;;;;;;11.86;84.21;100650.06;10376812;28;20050;-72
2022/05/08 21:46:29;;;;;;;4.93;1.98;;;;;;;11.66;83.87;100602.47;10365489;28;20046;-72
2022/05/08 21:51:29;;;;;;;4.50;1.73;;;;;;;11.70;84.18;100612.81;10351219;28;20042;-75
2022/05/08 21:56:30;;;;;;;5.32;2.20;;;;;;;11.65;84.29;100605.31;10376960;28;20560;-72
2022/05/08 22:01:31;;;;;;;7.03;2.05;;;;;;;11.76;84.78;100618.28;10369704;28;20540;-73
2022/05/08 22:06:32;;;;;;;4.80;1.70;;;;;;;11.72;84.81;100600.16;10373850;28;20038;-72
2022/05/08 22:11:33;;;;;;;4.30;1.60;;;;;;;11.24;85.11;100533.53;10376358;28;20121;-75
2022/05/08 22:16:34;;;;;;;5.68;1.92;;;;;;;11.71;86.09;100612.63;10376478;28;20045;-72
2022/05/08 22:21:36;;;;;;;6.93;2.05;;;;;;;11.69;86.22;100609.28;10375368;28;20037;-72
2022/05/08 22:26:39;;;;;;;4.95;1.92;;;;;;;11.49;85.59;100584.91;10376297;28;20558;-72
2022/05/08 22:31:40;;;;;;;7.93;1.55;;;;;;;10.79;85.30;100484.38;10375557;28;20049;-72
2022/05/08 22:36:41;;;;;;;6.80;1.80;;;;;;;11.25;85.58;100550.31;10374817;28;20052;-72
2022/05/08 22:41:42;;;;;;;6.72;1.75;;;;;;;11.40;85.75;100591.22;10375287;28;20065;-72
2022/05/08 22:46:43;;;;;;;4.53;1.98;;;;;;;11.06;85.46;100546.16;10375090;28;20116;-73
2022/05/08 22:51:43;;;;;;;7.75;2.10;;;;;;;11.48;85.46;100603.66;10374405;28;20072;-72
2022/05/08 22:56:44;;;;;;;4.80;1.98;;;;;;;10.90;85.47;100525.75;10374329;28;20053;-75
2022/05/08 23:01:53;;;;;;;5.40;2.20;;;;;;;11.29;86.46;100595.03;10374543;28;20038;-74
2022/05/08 23:06:54;;;;;;;5.75;1.58;;;;;;;10.89;86.44;100564.78;10374859;28;20386;-73
2022/05/08 23:11:54;;;;;;;5.28;2.20;;;;;;;10.99;87.14;100593.03;10373395;28;20034;-74
2022/05/08 23:16:55;;;;;;;13.40;1.67;;;;;;;10.62;87.98;100551.75;10373482;28;20050;-73
2022/05/08 23:21:56;;;;;;;4.18;1.67;;;;;;;10.69;88.22;100592.66;10373462;28;20042;-73
2022/05/08 23:26:57;;;;;;;3.67;1.58;;;;;;;9.82;88.25;100465.41;10372987;28;20196;-73
2022/05/08 23:31:58;;;;;;;4.00;1.75;;;;;;;10.49;88.57;100592.09;10373397;28;20060;-73
2022/05/08 23:37:05;;;;;;;3.88;1.50;;;;;;;9.55;89.17;100453.19;10373318;28;20503;-74
2022/05/08 23:42:07;;;;;;;3.72;1.67;;;;;;;9.94;88.52;100531.47;10372590;28;20042;-74
2022/05/08 23:47:08;;;;;;;10.85;2.17;;;;;;;10.17;89.25;100592.75;10372144;28;20512;-73
2022/05/08 23:52:10;;;;;;;5.35;1.70;;;;;;;10.08;89.80;100578.66;10372308;28;20107;-74
2022/05/08 23:57:11;;;;;;;7.38;1.75;;;;;;;9.37;89.58;100490.38;10372571;28;20136;-74
